Time;durP1;ratioP1;P1;durP2;ratioP2;P2;SDS_P1;SDS_P2;PMS_P1;PMS_P2;Temp;Humidity;BMP_temperature;BMP_pressure;BME280_temperature;BME280_humidity;BME280_pressure;Samples;Min_cycle;Max_cycle;Signal;HPM_P1;HPM_P2
2021/11/03 00:02:10;;;;;;;12.20;6.68;;;3.90;99.90;;;;;;6095381;23;20030;-87
2021/11/03 00:04:58;;;;;;;;;;;3.80;99.90;;;;;;6098254;23;20030;-86
2021/11/03 00:07:45;;;;;;;9.57;6.70;;;3.80;99.90;;;;;;6075373;23;19917;-86
2021/11/03 00:10:33;;;;;;;10.57;7.07;;;3.80;99.90;;;;;;6074436;23;20303;-86
2021/11/03 00:13:23;;;;;;;8.77;6.13;;;3.90;99.90;;;;;;6074160;23;20126;-86
2021/11/03 00:16:11;;;;;;;11.30;6.78;;;3.90;99.90;;;;;;6095515;23;20027;-86
2021/11/03 00:18:58;;;;;;;11.82;7.45;;;3.90;99.90;;;;;;6073210;23;20493;-86
2021/11/03 00:21:51;;;;;;;10.75;7.05;;;3.90;99.90;;;;;;6093893;23;20026;-85
2021/11/03 00:24:40;;;;;;;13.25;7.85;;;3.90;99.90;;;;;;6073253;23;20085;-85
2021/11/03 00:27:27;;;;;;;14.63;7.40;;;3.90;99.90;;;;;;6095227;23;20062;-86
2021/11/03 00:30:14;;;;;;;13.88;7.68;;;4.00;99.90;;;;;;6073833;23;20069;-87
2021/11/03 00:33:06;;;;;;;10.02;7.03;;;4.00;99.90;;;;;;6074074;23;20506;-87
2021/11/03 00:35:53;;;;;;;9.57;7.35;;;4.00;99.90;;;;;;6094774;23;20041;-87
2021/11/03 00:38:41;;;;;;;14.20;8.65;;;4.10;99.90;;;;;;6094499;23;20163;-86
2021/11/03 00:41:28;;;;;;;16.38;11.60;;;4.10;99.90;;;;;;6092602;23;20022;-85
2021/11/03 00:44:16;;;;;;;19.27;12.07;;;4.10;99.90;;;;;;6074247;23;20379;-86
2021/11/03 00:47:06;;;;;;;20.42;11.48;;;4.10;99.90;;;;;;6096931;23;20684;-85
2021/11/03 00:49:54;;;;;;;14.85;11.13;;;4.10;99.90;;;;;;6096443;23;20026;-85
2021/11/03 00:52:42;;;;;;;19.92;11.10;;;4.00;99.90;;;;;;6095949;23;20137;-86
2021/11/03 00:55:29;;;;;;;12.77;9.45;;;4.00;99.90;;;;;;6075155;23;20030;-86
2021/11/03 00:58:17;;;;;;;12.73;8.77;;;4.00;99.90;;;;;;6075937;23;20030;-86
2021/11/03 01:01:06;;;;;;;10.23;7.75;;;4.00;99.90;;;;;;6094225;23;20034;-86
2021/11/03 01:03:55;;;;;;;11.32;7.68;;;4.00;99.90;;;;;;6096903;23;20030;-86
2021/11/03 01:06:42;;;;;;;12.90;8.20;;;4.10;99.90;;;;;;6055208;23;20027;-86
2021/11/03 01:09:29;;;;;;;9.95;7.63;;;4.10;99.90;;;;;;6075486;23;20080;-84
2021/11/03 01:12:18;;;;;;;12.40;7.53;;;4.10;99.90;;;;;;6092976;23;20110;-86
2021/11/03 01:15:12;;;;;;;8.52;6.22;;;4.10;99.90;;;;;;6074399;23;20041;-85
2021/11/03 01:17:59;;;;;;;8.32;5.97;;;4.20;99.90;;;;;;6094348;23;20853;-87
2021/11/03 01:20:47;;;;;;;8.48;5.80;;;4.20;99.90;;;;;;6075751;23;20027;-86
2021/11/03 01:23:34;;;;;;;8.98;6.43;;;4.20;99.90;;;;;;6094810;23;20082;-85
2021/11/03 01:26:21;;;;;;;8.90;5.40;;;4.20;99.90;;;;;;6073150;23;20117;-86
2021/11/03 01:29:11;;;;;;;7.22;6.22;;;4.20;99.90;;;;;;6072671;23;20066;-86
2021/11/03 01:31:59;;;;;;;7.53;5.45;;;4.20;99.90;;;;;;6075804;23;20030;-85
2021/11/03 01:34:47;;;;;;;8.98;5.88;;;4.20;99.90;;;;;;6073248;23;20486;-85
2021/11/03 01:37:35;;;;;;;6.97;4.95;;;4.20;99.90;;;;;;6074899;23;20071;-85
2021/11/03 01:40:25;;;;;;;11.43;5.47;;;4.20;99.90;;;;;;6076250;23;20023;-86
2021/11/03 01:43:41;;;;;;;10.75;5.60;;;4.30;99.90;;;;;;6095887;23;20600;-86
2021/11/03 01:46:44;;;;;;;6.57;5.70;;;4.40;99.90;;;;;;6096167;23;20050;-85
2021/11/03 01:49:31;;;;;;;5.47;4.60;;;4.40;99.90;;;;;;6095697;23;20034;-86
2021/11/03 01:52:19;;;;;;;7.50;5.95;;;4.50;99.90;;;;;;6054928;23;20026;-85
2021/11/03 01:55:13;;;;;;;7.47;5.68;;;4.40;99.90;;;;;;6075406;23;20100;-85
2021/11/03 01:58:14;;;;;;;9.65;5.95;;;4.50;99.90;;;;;;6101763;23;20118;-85
2021/11/03 02:01:02;;;;;;;9.93;6.57;;;4.50;99.90;;;;;;6101780;23;20026;-85
2021/11/03 02:03:51;;;;;;;10.20;7.13;;;4.60;99.90;;;;;;6101613;23;20042;-85
2021/11/03 02:06:38;;;;;;;10.35;7.70;;;4.50;99.90;;;;;;6107618;23;20027;-83
2021/11/03 02:09:28;;;;;;;11.18;7.93;;;4.50;99.90;;;;;;6083809;23;20500;-84
2021/11/03 02:12:30;;;;;;;9.88;7.63;;;4.50;99.90;;;;;;6105898;23;20135;-84
2021/11/03 02:15:17;;;;;;;11.32;8.15;;;4.40;99.90;;;;;;6109675;23;20063;-85
2021/11/03 02:18:14;;;;;;;12.20;8.10;;;4.30;99.90;;;;;;6083853;23;20314;-85
2021/11/03 02:21:04;;;;;;;15.25;8.68;;;4.30;99.90;;;;;;6103119;23;20070;-85
2021/11/03 02:24:24;;;;;;;11.38;8.23;;;4.30;99.90;;;;;;6114857;23;20018;-85
2021/11/03 02:27:13;;;;;;;13.25;8.18;;;4.40;99.90;;;;;;6100107;23;20022;-85
2021/11/03 02:30:05;;;;;;;15.85;8.80;;;4.40;99.90;;;;;;6084848;23;20031;-84
2021/11/03 02:33:17;;;;;;;12.55;8.07;;;4.40;99.90;;;;;;6106557;23;20030;-84
2021/11/03 02:36:10;;;;;;;10.57;7.80;;;4.40;99.90;;;;;;6100305;23;20113;-84
2021/11/03 02:39:01;;;;;;;9.88;7.97;;;4.40;99.90;;;;;;6072302;23;20031;-85
2021/11/03 02:41:48;;;;;;;13.95;8.32;;;4.30;99.90;;;;;;6096396;23;20034;-84
2021/11/03 02:44:40;;;;;;;12.60;8.60;;;4.40;99.90;;;;;;6073276;23;20085;-85
2021/11/03 02:47:27;;;;;;;17.13;8.60;;;4.40;99.90;;;;;;6097316;23;20085;-86
2021/11/03 02:50:14;;;;;;;11.40;8.75;;;4.40;99.90;;;;;;6075105;23;20054;-85
2021/11/03 02:53:02;;;;;;;18.10;8.32;;;4.40;99.90;;;;;;6072681;23;20026;-83
2021/11/03 02:55:49;;;;;;;10.57;8.90;;;4.40;99.90;;;;;;6072756;23;20454;-86
2021/11/03 02:58:37;;;;;;;12.63;8.38;;;4.40;99.90;;;;;;6074163;23;20165;-86
2021/11/03 03:01:37;;;;;;;13.02;9.00;;;4.40;99.90;;;;;;6095001;23;20418;-86
2021/11/03 03:04:31;;;;;;;12.90;9.32;;;4.50;99.90;;;;;;6095968;23;20406;-85
2021/11/03 03:07:21;;;;;;;11.65;8.50;;;4.50;99.90;;;;;;6074059;23;20082;-86
2021/11/03 03:10:08;;;;;;;10.43;8.15;;;4.50;99.90;;;;;;6077251;23;20034;-85
2021/11/03 03:12:55;;;;;;;12.13;8.10;;;4.50;99.90;;;;;;6096747;23;20030;-83
2021/11/03 03:15:43;;;;;;;12.10;8.48;;;4.50;99.90;;;;;;6075031;23;20037;-85
2021/11/03 03:18:33;;;;;;;12.80;8.25;;;4.50;99.90;;;;;;6094898;23;20061;-85
2021/11/03 03:21:23;;;;;;;11.75;8.32;;;4.60;99.90;;;;;;6093778;23;20034;-85
2021/11/03 03:24:16;;;;;;;13.63;9.50;;;4.60;99.90;;;;;;6093371;23;20022;-85
2021/11/03 03:27:05;;;;;;;14.18;10.30;;;4.60;99.90;;;;;;6092833;23;20030;-86
2021/11/03 03:29:54;;;;;;;18.05;10.95;;;4.50;99.90;;;;;;6092345;23;20368;-86
2021/11/03 03:32:53;;;;;;;13.93;10.90;;;4.50;99.90;;;;;;6093904;23;20034;-85
2021/11/03 03:35:40;;;;;;;12.00;8.50;;;4.40;99.90;;;;;;6092383;23;20555;-85
2021/11/03 03:38:28;;;;;;;19.25;9.35;;;4.50;99.90;;;;;;6093889;23;20026;-85
2021/11/03 03:41:15;;;;;;;14.25;9.60;;;4.50;99.90;;;;;;6073446;23;20038;-85
2021/11/03 03:44:04;;;;;;;11.20;8.60;;;4.50;99.90;;;;;;6074158;23;20161;-84
2021/11/03 03:46:54;;;;;;;13.82;8.88;;;4.60;99.90;;;;;;6092563;23;20319;-85
2021/11/03 03:49:41;;;;;;;17.40;8.85;;;4.70;99.90;;;;;;6094802;23;20033;-85
2021/11/03 03:52:31;;;;;;;28.17;9.65;;;4.70;99.90;;;;;;6093131;23;20031;-85
2021/11/03 03:55:19;;;;;;;14.90;9.38;;;4.60;99.90;;;;;;6094076;23;20086;-84
2021/11/03 03:58:07;;;;;;;13.23;8.80;;;4.60;99.90;;;;;;6074076;23;20117;-86
2021/11/03 04:00:57;;;;;;;13.82;9.10;;;4.70;99.90;;;;;;6095328;23;20521;-85
2021/11/03 04:03:47;;;;;;;13.85;9.13;;;4.70;99.90;;;;;;6075870;23;20332;-85
2021/11/03 04:06:35;;;;;;;10.63;8.13;;;4.70;99.90;;;;;;6076313;23;20030;-85
2021/11/03 04:09:22;;;;;;;12.52;7.63;;;4.80;99.90;;;;;;6095552;23;20038;-85
2021/11/03 04:12:12;;;;;;;16.33;8.98;;;4.80;99.90;;;;;;6073007;23;20074;-86
2021/11/03 04:14:59;;;;;;;13.55;8.73;;;4.80;99.90;;;;;;6054796;23;20342;-86
2021/11/03 04:17:48;;;;;;;11.00;8.00;;;4.80;99.90;;;;;;6096150;23;20030;-85
2021/11/03 04:20:38;;;;;;;13.85;8.90;;;4.80;99.90;;;;;;6095282;23;20065;-85
2021/11/03 04:23:26;;;;;;;11.43;8.65;;;4.80;99.90;;;;;;6093076;23;20061;-86
2021/11/03 04:26:29;;;;;;;14.23;9.80;;;4.90;99.90;;;;;;6093084;23;20030;-86
2021/11/03 04:29:21;;;;;;;13.50;8.80;;;4.90;99.90;;;;;;6095026;23;20114;-85
2021/11/03 04:32:08;;;;;;;11.95;8.57;;;4.90;99.90;;;;;;6097295;23;20063;-84
2021/11/03 04:34:59;;;;;;;14.57;8.05;;;4.90;99.90;;;;;;6074262;23;20038;-84
2021/11/03 04:37:46;;;;;;;15.95;7.93;;;4.90;99.90;;;;;;6095657;23;20134;-84
2021/11/03 04:40:36;;;;;;;8.60;6.45;;;4.90;99.90;;;;;;6075186;23;20038;-84
2021/11/03 04:43:23;;;;;;;13.45;6.53;;;5.00;99.90;;;;;;6054665;23;20033;-85
2021/11/03 04:46:10;;;;;;;7.35;6.55;;;5.10;99.90;;;;;;6073926;23;20387;-85
2021/11/03 04:49:02;;;;;;;7.95;6.22;;;5.10;99.90;;;;;;6074763;23;20230;-85
2021/11/03 04:51:52;;;;;;;8.15;5.60;;;5.10;99.90;;;;;;6074833;23;20133;-85
2021/11/03 04:54:42;;;;;;;6.55;4.78;;;5.10;99.90;;;;;;6095590;23;20552;-85
2021/11/03 04:57:30;;;;;;;6.72;4.90;;;5.10;99.90;;;;;;6093345;23;20030;-85
2021/11/03 05:00:22;;;;;;;6.47;5.43;;;5.10;99.90;;;;;;6075356;23;20033;-85
2021/11/03 05:03:09;;;;;;;6.88;5.03;;;5.10;99.90;;;;;;6096259;23;20593;-84
2021/11/03 05:05:58;;;;;;;8.70;5.22;;;5.10;99.90;;;;;;6097460;23;20427;-85
2021/11/03 05:08:48;;;;;;;7.13;5.20;;;5.10;99.90;;;;;;6097088;23;20030;-85
2021/11/03 05:11:35;;;;;;;8.55;4.97;;;5.10;99.90;;;;;;6096165;23;20336;-85
2021/11/03 05:14:23;;;;;;;9.73;5.00;;;5.00;99.90;;;;;;6074548;23;20332;-85
2021/11/03 05:17:10;;;;;;;5.68;4.47;;;4.90;99.90;;;;;;6072271;23;20030;-85
2021/11/03 05:19:59;;;;;;;6.47;5.15;;;4.90;99.90;;;;;;6096899;23;20026;-84
2021/11/03 05:22:49;;;;;;;8.02;5.07;;;4.90;99.90;;;;;;6076573;23;20037;-85
2021/11/03 05:25:41;;;;;;;6.53;5.18;;;4.90;99.90;;;;;;6095414;23;20030;-85
2021/11/03 05:28:50;;;;;;;8.07;5.55;;;4.90;99.90;;;;;;6093130;23;20058;-85
2021/11/03 05:31:38;;;;;;;7.10;6.07;;;5.00;99.90;;;;;;6093593;23;20113;-86
2021/11/03 05:34:26;;;;;;;8.50;5.22;;;5.00;99.90;;;;;;6096314;23;20066;-85
2021/11/03 05:37:16;;;;;;;7.55;5.03;;;5.00;99.90;;;;;;6093684;23;20027;-85
2021/11/03 05:40:07;;;;;;;5.55;4.30;;;5.00;99.90;;;;;;6095024;23;20026;-85
2021/11/03 05:42:54;;;;;;;4.80;4.03;;;5.00;99.90;;;;;;6094150;23;20318;-85
2021/11/03 05:45:42;;;;;;;4.78;3.53;;;5.10;99.90;;;;;;6092934;23;20049;-85
2021/11/03 05:48:32;;;;;;;4.82;3.70;;;5.00;99.90;;;;;;6095514;23;20034;-85
2021/11/03 05:51:19;;;;;;;6.28;4.40;;;5.00;99.90;;;;;;6095711;23;20466;-86
2021/11/03 05:54:07;;;;;;;10.85;6.18;;;5.00;99.90;;;;;;6073588;23;20363;-84
2021/11/03 05:57:00;;;;;;;6.72;5.28;;;4.90;99.90;;;;;;6093375;23;20416;-84
2021/11/03 05:59:48;;;;;;;8.25;4.63;;;4.80;99.90;;;;;;6093978;23;20030;-84
2021/11/03 06:02:35;;;;;;;6.60;4.75;;;4.90;99.90;;;;;;6095311;23;20219;-84
2021/11/03 06:05:24;;;;;;;6.07;4.47;;;4.90;99.90;;;;;;6096377;23;20101;-84
2021/11/03 06:08:14;;;;;;;5.93;4.30;;;4.90;99.90;;;;;;6074662;23;20355;-86
2021/11/03 06:11:06;;;;;;;7.75;4.55;;;4.90;99.90;;;;;;6094793;23;20094;-85
2021/11/03 06:13:54;;;;;;;8.48;4.10;;;5.00;99.90;;;;;;6095236;23;20102;-84
2021/11/03 06:16:42;;;;;;;8.18;4.70;;;5.00;99.90;;;;;;6054533;23;20055;-85
2021/11/03 06:19:29;;;;;;;7.60;3.78;;;5.00;99.90;;;;;;6097125;23;20121;-84
2021/11/03 06:22:16;;;;;;;6.00;4.18;;;5.00;99.90;;;;;;6076082;23;20041;-83
2021/11/03 06:25:06;;;;;;;5.07;3.95;;;5.00;99.90;;;;;;6094337;23;20521;-85
2021/11/03 06:27:56;;;;;;;5.03;4.03;;;5.10;99.90;;;;;;6074033;23;20383;-84
2021/11/03 06:30:44;;;;;;;10.32;4.65;;;5.10;99.90;;;;;;6095264;23;20034;-85
2021/11/03 06:33:34;;;;;;;5.65;4.57;;;5.10;99.90;;;;;;6093856;23;20030;-84
2021/11/03 06:36:21;;;;;;;5.35;3.90;;;5.10;99.90;;;;;;6073374;23;20034;-84
2021/11/03 06:39:10;;;;;;;4.88;3.97;;;5.10;99.90;;;;;;6095917;23;20030;-84
2021/11/03 06:42:00;;;;;;;3.90;3.50;;;5.20;99.90;;;;;;6090823;23;20042;-83
2021/11/03 06:44:53;;;;;;;4.28;3.70;;;5.20;99.90;;;;;;6095562;23;20658;-85
2021/11/03 06:47:40;;;;;;;4.03;3.63;;;5.20;99.90;;;;;;6075528;23;20420;-85
2021/11/03 06:50:31;;;;;;;3.78;3.40;;;5.30;99.90;;;;;;6072985;23;20079;-84
2021/11/03 06:53:23;;;;;;;5.97;3.63;;;5.30;99.90;;;;;;6084696;23;20057;-85
2021/11/03 06:56:13;;;;;;;4.10;3.70;;;5.40;99.90;;;;;;6105963;23;20517;-83
2021/11/03 06:59:03;;;;;;;4.80;4.00;;;5.30;99.90;;;;;;6102044;23;20297;-87
2021/11/03 07:01:55;;;;;;;6.45;4.25;;;5.30;99.90;;;;;;6104002;23;20101;-86
2021/11/03 07:04:44;;;;;;;5.60;4.88;;;5.40;99.90;;;;;;6108260;23;20025;-84
2021/11/03 07:07:35;;;;;;;6.55;4.85;;;5.40;99.90;;;;;;6113890;23;20033;-85
2021/11/03 07:10:40;;;;;;;8.07;5.35;;;5.40;99.90;;;;;;6063945;23;20026;-86
2021/11/03 07:13:29;;;;;;;9.95;4.93;;;5.40;99.90;;;;;;6086443;23;20033;-87
2021/11/03 07:16:19;;;;;;;7.18;4.60;;;5.40;99.90;;;;;;6106713;23;20030;-87
2021/11/03 07:19:07;;;;;;;7.82;5.75;;;5.50;99.90;;;;;;6100765;23;20026;-87
2021/11/03 07:21:59;;;;;;;7.50;4.95;;;5.50;99.90;;;;;;6075107;23;20027;-87
2021/11/03 07:24:47;;;;;;;4.63;4.13;;;5.60;99.90;;;;;;6097856;23;20050;-87
2021/11/03 07:27:34;;;;;;;5.20;4.60;;;5.60;99.90;;;;;;6074252;23;20403;-87
2021/11/03 07:30:27;;;;;;;11.30;4.28;;;5.60;99.90;;;;;;6100288;23;20367;-87
2021/11/03 07:33:16;;;;;;;8.77;4.53;;;5.60;99.90;;;;;;6097626;23;20094;-87
2021/11/03 07:36:06;;;;;;;4.95;4.13;;;5.60;99.90;;;;;;6099790;23;20026;-87
2021/11/03 07:38:53;;;;;;;5.75;4.30;;;5.60;99.90;;;;;;6099742;23;20066;-87
2021/11/03 07:41:59;;;;;;;8.32;3.55;;;5.60;99.90;;;;;;6084588;23;20046;-87
2021/11/03 07:44:50;;;;;;;5.63;3.05;;;5.60;99.90;;;;;;6104653;23;20121;-87
2021/11/03 07:47:39;;;;;;;4.40;3.20;;;5.70;99.90;;;;;;6102692;23;20030;-86
2021/11/03 07:50:29;;;;;;;5.65;4.00;;;5.70;99.90;;;;;;6103446;23;20062;-87
2021/11/03 07:53:21;;;;;;;5.00;3.95;;;5.70;99.90;;;;;;6100477;23;20026;-87
2021/11/03 07:56:15;;;;;;;12.57;4.57;;;5.70;99.90;;;;;;6100664;23;20026;-85
2021/11/03 07:59:08;;;;;;;28.45;8.63;;;5.80;99.90;;;;;;6098137;23;20030;-87
2021/11/03 08:01:56;;;;;;;14.32;4.95;;;5.80;99.90;;;;;;6103418;23;20065;-86
2021/11/03 08:04:43;;;;;;;7.93;3.15;;;5.90;99.90;;;;;;6099011;23;20022;-87
2021/11/03 08:07:32;;;;;;;5.45;3.17;;;5.90;99.90;;;;;;6098700;23;20037;-88
2021/11/03 08:10:20;;;;;;;5.20;2.90;;;5.90;99.90;;;;;;6078127;23;20030;-88
2021/11/03 08:13:12;;;;;;;4.72;3.22;;;6.00;99.90;;;;;;6077710;23;20030;-87
2021/11/03 08:16:03;;;;;;;4.10;2.83;;;6.10;99.90;;;;;;6077323;23;20109;-87
2021/11/03 08:18:50;;;;;;;6.20;2.83;;;6.20;99.90;;;;;;6097445;23;20033;-86
2021/11/03 08:21:39;;;;;;;3.38;2.40;;;6.20;99.90;;;;;;6098982;23;20439;-86
2021/11/03 08:24:29;;;;;;;4.03;2.72;;;6.30;99.90;;;;;;6098580;23;20110;-87
2021/11/03 08:27:18;;;;;;;5.18;3.03;;;6.30;99.90;;;;;;6097148;23;20118;-87
2021/11/03 08:30:10;;;;;;;4.38;3.35;;;6.20;99.90;;;;;;6099859;23;20030;-88
2021/11/03 08:33:08;;;;;;;4.90;3.53;;;6.20;99.90;;;;;;6078076;23;20030;-87
2021/11/03 08:35:58;;;;;;;4.53;3.72;;;6.20;99.90;;;;;;6096999;23;20109;-87
2021/11/03 08:39:08;;;;;;;6.30;3.40;;;6.30;99.90;;;;;;6099181;23;20030;-87
2021/11/03 08:41:58;;;;;;;4.43;3.22;;;6.40;99.90;;;;;;6101533;23;20022;-87
2021/11/03 08:44:56;;;;;;;3.97;3.58;;;6.40;99.90;;;;;;6101879;23;20022;-86
2021/11/03 08:47:47;;;;;;;4.50;3.80;;;6.40;99.90;;;;;;6079094;23;20031;-85
2021/11/03 08:50:39;;;;;;;6.78;4.10;;;6.50;99.90;;;;;;6080050;23;20133;-85
2021/11/03 08:53:28;;;;;;;;;;;6.50;99.90;;;;;;6084427;23;20059;-85
2021/11/03 08:56:16;;;;;;;7.22;4.25;;;6.50;99.90;;;;;;6098505;23;19917;-85
2021/11/03 08:59:09;;;;;;;6.00;4.70;;;6.60;99.90;;;;;;6098109;23;20030;-85
2021/11/03 09:02:00;;;;;;;4.78;4.18;;;6.80;99.90;;;;;;6075285;23;20026;-87
2021/11/03 09:04:53;;;;;;;4.82;3.65;;;7.00;99.90;;;;;;6098839;23;20038;-86
2021/11/03 09:07:41;;;;;;;4.85;3.60;;;7.20;99.90;;;;;;6096280;23;20027;-86
2021/11/03 09:10:34;;;;;;;4.50;2.97;;;7.60;99.90;;;;;;6096613;23;20041;-88
2021/11/03 09:13:26;;;;;;;5.20;2.40;;;8.10;99.90;;;;;;6076210;23;20445;-86
2021/11/03 09:16:18;;;;;;;2.90;2.30;;;8.50;99.90;;;;;;6079326;23;20026;-87
2021/11/03 09:19:05;;;;;;;3.03;2.45;;;8.70;99.90;;;;;;6076474;23;20030;-86
2021/11/03 09:21:56;;;;;;;3.97;2.30;;;8.90;99.90;;;;;;6096929;23;20086;-87
2021/11/03 09:24:49;;;;;;;7.28;3.78;;;8.70;99.90;;;;;;6098974;23;20114;-86
2021/11/03 09:27:37;;;;;;;5.82;2.85;;;8.60;99.90;;;;;;6095729;23;20403;-88
2021/11/03 09:30:26;;;;;;;7.38;2.20;;;8.40;99.90;;;;;;6077067;23;20109;-88
2021/11/03 09:33:14;;;;;;;2.70;2.30;;;8.20;99.90;;;;;;6075638;23;20042;-86
2021/11/03 09:36:04;;;;;;;7.90;3.00;;;8.20;99.90;;;;;;6097350;23;20035;-87
2021/11/03 09:38:54;;;;;;;4.55;3.40;;;8.20;99.90;;;;;;6097806;23;20071;-87
2021/11/03 09:41:52;;;;;;;8.68;2.85;;;8.40;99.90;;;;;;6097951;23;20048;-87
2021/11/03 09:44:44;;;;;;;7.82;2.88;;;8.50;99.90;;;;;;6097008;23;20045;-87
2021/11/03 09:47:40;;;;;;;5.65;2.50;;;8.60;99.90;;;;;;6078610;23;20124;-86
2021/11/03 09:50:41;;;;;;;2.17;1.70;;;8.60;99.90;;;;;;6079137;23;20030;-87
2021/11/03 09:53:46;;;;;;;3.42;2.05;;;8.60;99.90;;;;;;6100296;23;20033;-87
2021/11/03 09:56:44;;;;;;;5.35;2.40;;;8.70;99.90;;;;;;6097067;23;20030;-85
2021/11/03 09:59:41;;;;;;;3.72;2.45;;;8.70;99.90;;;;;;6097133;23;20090;-86
2021/11/03 10:02:57;;;;;;;4.55;2.22;;;8.70;99.90;;;;;;6078171;23;20034;-86
2021/11/03 10:06:28;;;;;;;3.97;2.17;;;8.60;99.90;;;;;;6101120;23;20315;-87
2021/11/03 10:09:19;;;;;;;4.38;2.85;;;8.60;99.90;;;;;;6054683;23;20141;-86
2021/11/03 10:12:15;;;;;;;4.63;3.28;;;8.60;99.90;;;;;;6096343;23;20046;-85
2021/11/03 10:15:04;;;;;;;4.38;2.97;;;8.60;99.90;;;;;;6095981;23;20022;-86
2021/11/03 10:18:10;;;;;;;3.63;2.67;;;8.70;99.90;;;;;;6099903;23;20093;-85
2021/11/03 10:21:25;;;;;;;5.47;2.90;;;8.70;99.90;;;;;;6096357;23;20388;-86
2021/11/03 10:24:15;;;;;;;5.47;2.95;;;8.60;99.90;;;;;;6073404;23;20165;-85
2021/11/03 10:27:11;;;;;;;5.93;3.00;;;8.50;99.90;;;;;;6096003;23;20026;-84
2021/11/03 10:30:21;;;;;;;5.20;3.28;;;8.50;99.90;;;;;;6077700;23;20053;-87
2021/11/03 10:33:21;;;;;;;5.93;3.40;;;8.50;99.90;;;;;;6096405;23;20036;-86
2021/11/03 10:36:25;;;;;;;6.13;3.35;;;8.40;99.90;;;;;;6101206;23;20081;-86
2021/11/03 10:39:48;;;;;;;6.43;4.25;;;8.50;99.90;;;;;;6097794;23;20580;-87
2021/11/03 10:42:54;;;;;;;5.38;3.97;;;8.50;99.90;;;;;;6076203;23;20034;-87
2021/11/03 10:45:41;;;;;;;5.65;3.38;;;8.50;99.90;;;;;;6096454;23;20334;-86
2021/11/03 10:48:32;;;;;;;7.70;3.50;;;8.50;99.90;;;;;;6057008;23;20030;-87
2021/11/03 10:51:35;;;;;;;5.40;3.85;;;8.60;99.90;;;;;;6073712;23;20030;-86
2021/11/03 10:54:22;;;;;;;;;;;8.60;99.90;;;;;;6093941;23;20114;-86
2021/11/03 10:57:43;;;;;;;6.57;3.28;;;8.50;99.90;;;;;;6098414;23;20305;-87
2021/11/03 11:00:37;;;;;;;6.28;3.10;;;8.50;99.90;;;;;;6073457;23;20470;-86
2021/11/03 11:03:47;;;;;;;4.35;3.20;;;8.50;99.90;;;;;;6096760;23;20023;-88
2021/11/03 11:06:43;;;;;;;5.35;3.53;;;8.30;99.90;;;;;;6095493;23;20022;-85
2021/11/03 11:09:42;;;;;;;9.60;2.92;;;8.30;99.90;;;;;;6098313;23;20026;-87
2021/11/03 11:12:42;;;;;;;5.30;2.90;;;8.20;99.90;;;;;;6076918;23;20053;-85
2021/11/03 11:15:57;;;;;;;9.82;4.00;;;8.20;99.90;;;;;;6098039;23;20141;-85
2021/11/03 11:19:02;;;;;;;6.80;3.50;;;8.40;99.90;;;;;;6077341;23;20030;-85
2021/11/03 11:21:53;;;;;;;14.98;4.43;;;8.40;99.90;;;;;;6077800;23;20085;-87
2021/11/03 11:24:56;;;;;;;3.88;2.35;;;8.50;99.90;;;;;;6098248;23;20513;-85
2021/11/03 11:27:52;;;;;;;3.70;2.05;;;8.40;99.90;;;;;;6098324;23;20104;-86
2021/11/03 11:31:09;;;;;;;3.00;2.42;;;8.40;99.90;;;;;;6098091;23;20094;-86
2021/11/03 11:34:15;;;;;;;6.05;3.22;;;8.30;99.90;;;;;;6098512;23;20030;-86
2021/11/03 11:37:17;;;;;;;5.82;3.50;;;8.40;99.90;;;;;;6075838;23;20042;-86
2021/11/03 11:40:50;;;;;;;6.60;3.90;;;8.60;99.90;;;;;;6094644;23;20030;-87
2021/11/03 11:43:47;;;;;;;3.53;2.40;;;8.80;99.90;;;;;;5931561;24;20198;-86
2021/11/03 11:46:37;;;;;;;4.80;1.92;;;8.80;99.90;;;;;;5952274;24;20056;-88
2021/11/03 11:49:42;;;;;;;3.92;2.58;;;8.80;99.90;;;;;;6068325;23;20022;-89
2021/11/03 11:52:34;;;;;;;4.78;2.78;;;8.70;99.90;;;;;;6073969;23;20461;-88
2021/11/03 11:55:33;;;;;;;5.00;2.53;;;8.80;99.90;;;;;;6074949;23;20031;-88
2021/11/03 11:58:25;;;;;;;3.72;2.70;;;8.90;99.90;;;;;;6075144;23;20394;-86
2021/11/03 12:01:14;;;;;;;3.38;2.65;;;9.00;99.90;;;;;;6094572;23;20026;-83
2021/11/03 12:04:04;;;;;;;4.63;2.45;;;9.10;99.90;;;;;;6093746;23;20094;-86
2021/11/03 12:06:53;;;;;;;3.25;2.13;;;9.10;99.90;;;;;;6096076;23;20071;-86
2021/11/03 12:10:27;;;;;;;3.05;2.30;;;9.00;99.90;;;;;;6075596;23;20074;-86
2021/11/03 12:13:15;;;;;;;3.90;1.60;;;8.90;99.90;;;;;;6097961;23;20045;-86
2021/11/03 12:16:18;;;;;;;5.63;2.00;;;8.80;99.90;;;;;;6080783;23;20030;-87
2021/11/03 12:19:39;;;;;;;4.63;3.20;;;8.80;99.90;;;;;;6084598;23;20026;-84
2021/11/03 12:22:28;;;;;;;4.30;2.38;;;8.80;99.90;;;;;;6108322;23;20377;-87
2021/11/03 12:25:19;;;;;;;3.25;2.10;;;8.70;99.90;;;;;;6107150;23;20045;-86
2021/11/03 12:28:12;;;;;;;2.53;2.30;;;8.70;99.90;;;;;;6106163;23;20113;-86
2021/11/03 12:31:14;;;;;;;2.63;2.00;;;8.60;99.90;;;;;;6105141;23;20086;-86
2021/11/03 12:34:12;;;;;;;3.03;2.20;;;8.50;99.90;;;;;;6106647;23;20036;-85
2021/11/03 12:37:05;;;;;;;4.38;3.15;;;8.40;99.90;;;;;;6107395;23;20121;-87
2021/11/03 12:40:00;;;;;;;5.43;3.40;;;8.20;99.90;;;;;;6083177;23;20433;-86
2021/11/03 12:42:54;;;;;;;8.60;3.25;;;8.10;99.90;;;;;;6105003;23;20059;-85
2021/11/03 12:46:13;;;;;;;7.90;3.33;;;8.10;99.90;;;;;;6101086;23;20037;-84
2021/11/03 12:49:01;;;;;;;4.75;2.88;;;8.00;99.90;;;;;;6078787;23;20054;-85
2021/11/03 12:51:50;;;;;;;8.35;3.03;;;7.90;99.90;;;;;;6098031;23;20085;-85
2021/11/03 12:54:51;;;;;;;11.45;4.38;;;7.90;99.90;;;;;;6098836;23;20041;-84
2021/11/03 12:58:04;;;;;;;2.75;1.92;;;7.80;99.90;;;;;;6094800;23;20334;-86
2021/11/03 14:08:07;;;;;;;2.97;1.83;;;6.80;99.90;;;;;;6092179;23;20018;-84
2021/11/03 14:11:47;;;;;;;4.80;2.00;;;6.80;99.90;;;;;;5948692;24;20040;-86
2021/11/03 14:27:55;;;;;;;3.25;1.95;;;6.70;99.90;;;;;;5962359;24;20012;-85
2021/11/03 14:31:34;;;;;;;2.17;1.70;;;6.70;99.90;;;;;;5863682;24;20030;-86
2021/11/03 14:34:32;;;;;;;1.85;1.30;;;6.70;99.90;;;;;;5932596;23;20120;-86
2021/11/03 14:37:19;;;;;;;3.00;1.90;;;6.70;99.90;;;;;;6082088;23;20030;-87
2021/11/03 14:40:21;;;;;;;6.22;3.13;;;6.70;99.90;;;;;;6100011;23;20121;-87
2021/11/03 14:43:14;;;;;;;4.93;2.88;;;6.70;99.90;;;;;;6101214;23;20037;-87
2021/11/03 14:46:25;;;;;;;2.67;2.08;;;6.70;99.90;;;;;;6100367;23;20067;-87
2021/11/03 14:49:33;;;;;;;4.90;3.00;;;6.70;99.90;;;;;;6093882;23;20030;-87
2021/11/03 14:52:29;;;;;;;7.65;3.20;;;6.70;99.90;;;;;;6073870;23;20399;-86
2021/11/03 14:55:22;;;;;;;3.33;2.35;;;6.70;99.90;;;;;;6074775;23;20052;-86
2021/11/03 14:58:13;;;;;;;2.92;2.30;;;6.60;99.90;;;;;;6076584;23;20054;-87
2021/11/03 15:01:34;;;;;;;3.50;2.00;;;6.60;99.90;;;;;;6096081;23;20094;-87
2021/11/03 15:04:35;;;;;;;5.32;2.30;;;6.60;99.90;;;;;;6096356;23;20118;-87
2021/11/03 15:07:27;;;;;;;9.77;4.55;;;6.60;99.90;;;;;;6095386;23;20038;-87
2021/11/03 15:10:21;;;;;;;8.82;3.30;;;6.50;99.90;;;;;;6097447;23;20375;-88
2021/11/03 15:13:09;;;;;;;10.02;3.80;;;6.50;99.90;;;;;;6096552;23;20441;-87
2021/11/03 15:16:02;;;;;;;4.45;3.38;;;6.50;99.90;;;;;;6097651;23;20111;-88
2021/11/03 15:18:51;;;;;;;2.42;1.85;;;6.50;99.90;;;;;;6095430;23;20027;-86
2021/11/03 15:21:39;;;;;;;2.30;1.83;;;6.50;99.90;;;;;;6098035;23;20037;-85
2021/11/03 15:24:27;;;;;;;3.95;2.40;;;6.50;99.90;;;;;;6099177;23;20426;-87
2021/11/03 15:27:16;;;;;;;2.38;2.13;;;6.50;99.90;;;;;;6098376;23;20026;-87
2021/11/03 15:30:05;;;;;;;1.98;1.50;;;6.50;99.90;;;;;;6094006;23;20283;-89
2021/11/03 15:32:53;;;;;;;2.13;1.30;;;6.50;99.90;;;;;;6102753;23;20030;-85
2021/11/03 15:35:49;;;;;;;5.57;1.60;;;6.50;99.90;;;;;;6084304;23;20061;-87
2021/11/03 15:38:42;;;;;;;2.42;1.92;;;6.50;99.90;;;;;;6082665;23;20030;-86
2021/11/03 15:41:32;;;;;;;2.63;2.00;;;6.50;99.90;;;;;;6108561;23;20022;-84
2021/11/03 15:44:23;;;;;;;3.25;2.10;;;6.50;99.90;;;;;;6115122;23;20026;-86
2021/11/03 15:47:29;;;;;;;2.78;2.15;;;6.50;99.90;;;;;;6106971;23;20026;-85
2021/11/03 15:50:29;;;;;;;2.17;1.98;;;6.40;99.90;;;;;;6104007;23;20026;-86
2021/11/03 15:53:24;;;;;;;2.92;2.22;;;6.50;99.90;;;;;;6103293;23;20026;-86
2021/11/03 15:56:26;;;;;;;2.78;1.98;;;6.50;99.90;;;;;;6073656;23;20031;-85
2021/11/03 15:59:14;;;;;;;4.30;2.85;;;6.50;99.90;;;;;;6074209;23;20026;-87
2021/11/03 16:02:02;;;;;;;4.15;3.10;;;6.50;99.90;;;;;;6094374;23;20042;-85
2021/11/03 16:04:54;;;;;;;5.47;3.20;;;6.50;99.90;;;;;;6055737;23;20441;-85
2021/11/03 16:07:48;;;;;;;6.15;4.75;;;6.50;99.90;;;;;;6101386;23;20022;-86
2021/11/03 16:11:19;;;;;;;7.53;3.70;;;6.40;99.90;;;;;;6096276;23;20101;-84
2021/11/03 16:15:03;;;;;;;4.93;3.42;;;6.40;99.90;;;;;;6072008;23;20477;-86
2021/11/03 16:47:23;;;;;;;8.18;5.05;;;6.50;99.90;;;;;;6055819;23;20022;-85
2021/11/03 16:50:25;;;;;;;22.63;11.73;;;6.40;99.90;;;;;;6093518;23;20023;-84
2021/11/03 16:53:12;;;;;;;7.97;5.25;;;6.40;99.90;;;;;;6075498;23;20035;-86
2021/11/03 16:56:08;;;;;;;6.00;4.00;;;6.40;99.90;;;;;;6073823;23;20307;-85
2021/11/03 16:58:57;;;;;;;5.18;3.90;;;6.40;99.90;;;;;;6097146;23;20038;-85
2021/11/03 17:01:45;;;;;;;8.48;3.95;;;6.40;99.90;;;;;;6074352;23;20026;-85
2021/11/03 17:04:32;;;;;;;5.50;2.60;;;6.40;99.90;;;;;;6109204;23;20030;-83